sensor_id;sensor_type;location;lat;lon;timestamp;P1;durP1;ratioP1;P2;durP2;ratioP2
11735;SDS011;5924;51.398;7.088;2023-03-14T00:01:13;9.23;;;1.73;;
11735;SDS011;5924;51.398;7.088;2023-03-14T00:03:41;5.00;;;2.07;;
11735;SDS011;5924;51.398;7.088;2023-03-14T00:06:07;2.60;;;2.17;;
11735;SDS011;5924;51.398;7.088;2023-03-14T00:08:33;1.77;;;1.67;;
11735;SDS011;5924;51.398;7.088;2023-03-14T00:11:09;2.40;;;2.00;;
11735;SDS011;5924;51.398;7.088;2023-03-14T00:13:37;3.17;;;1.60;;
11735;SDS011;5924;51.398;7.088;2023-03-14T00:16:04;3.37;;;1.73;;
11735;SDS011;5924;51.398;7.088;2023-03-14T00:18:32;8.73;;;1.90;;
11735;SDS011;5924;51.398;7.088;2023-03-14T00:20:58;3.00;;;2.00;;
11735;SDS011;5924;51.398;7.088;2023-03-14T00:23:26;4.23;;;1.80;;
11735;SDS011;5924;51.398;7.088;2023-03-14T00:25:52;14.40;;;2.47;;
11735;SDS011;5924;51.398;7.088;2023-03-14T00:28:18;7.50;;;2.30;;
11735;SDS011;5924;51.398;7.088;2023-03-14T00:30:43;4.97;;;2.47;;
11735;SDS011;5924;51.398;7.088;2023-03-14T00:33:09;4.53;;;2.67;;
11735;SDS011;5924;51.398;7.088;2023-03-14T00:35:35;3.30;;;1.90;;
11735;SDS011;5924;51.398;7.088;2023-03-14T00:38:00;3.90;;;1.97;;
11735;SDS011;5924;51.398;7.088;2023-03-14T00:40:26;8.00;;;2.27;;
11735;SDS011;5924;51.398;7.088;2023-03-14T00:42:52;5.90;;;1.80;;
11735;SDS011;5924;51.398;7.088;2023-03-14T00:45:17;6.10;;;2.00;;
11735;SDS011;5924;51.398;7.088;2023-03-14T00:47:43;1.80;;;1.70;;
11735;SDS011;5924;51.398;7.088;2023-03-14T00:50:10;5.40;;;1.73;;
11735;SDS011;5924;51.398;7.088;2023-03-14T00:52:36;8.13;;;2.57;;
11735;SDS011;5924;51.398;7.088;2023-03-14T00:55:02;5.77;;;1.87;;
11735;SDS011;5924;51.398;7.088;2023-03-14T00:57:28;4.57;;;1.57;;
11735;SDS011;5924;51.398;7.088;2023-03-14T00:59:54;0.70;;;0.70;;
11735;SDS011;5924;51.398;7.088;2023-03-14T01:02:19;1.70;;;0.70;;
11735;SDS011;5924;51.398;7.088;2023-03-14T01:04:47;10.33;;;1.63;;
11735;SDS011;5924;51.398;7.088;2023-03-14T01:07:13;6.33;;;1.70;;
11735;SDS011;5924;51.398;7.088;2023-03-14T01:09:39;5.53;;;1.80;;
11735;SDS011;5924;51.398;7.088;2023-03-14T01:12:05;1.93;;;1.37;;
11735;SDS011;5924;51.398;7.088;2023-03-14T01:14:30;5.80;;;2.70;;
11735;SDS011;5924;51.398;7.088;2023-03-14T01:16:56;5.50;;;2.10;;
11735;SDS011;5924;51.398;7.088;2023-03-14T01:19:26;3.70;;;1.93;;
11735;SDS011;5924;51.398;7.088;2023-03-14T01:21:53;6.90;;;1.73;;
11735;SDS011;5924;51.398;7.088;2023-03-14T01:24:19;2.70;;;1.33;;
11735;SDS011;5924;51.398;7.088;2023-03-14T01:26:45;2.30;;;2.00;;
11735;SDS011;5924;51.398;7.088;2023-03-14T01:29:11;7.63;;;2.10;;
11735;SDS011;5924;51.398;7.088;2023-03-14T01:31:37;4.23;;;1.50;;
11735;SDS011;5924;51.398;7.088;2023-03-14T01:34:02;7.17;;;1.80;;
11735;SDS011;5924;51.398;7.088;2023-03-14T01:36:28;3.93;;;1.70;;
11735;SDS011;5924;51.398;7.088;2023-03-14T01:38:54;4.57;;;1.47;;
11735;SDS011;5924;51.398;7.088;2023-03-14T01:41:20;5.70;;;1.50;;
11735;SDS011;5924;51.398;7.088;2023-03-14T01:43:48;4.20;;;1.63;;
11735;SDS011;5924;51.398;7.088;2023-03-14T01:48:56;16.90;;;2.00;;
11735;SDS011;5924;51.398;7.088;2023-03-14T01:51:31;11.50;;;1.60;;
11735;SDS011;5924;51.398;7.088;2023-03-14T01:56:44;4.47;;;1.20;;
11735;SDS011;5924;51.398;7.088;2023-03-14T01:59:13;6.70;;;1.40;;
11735;SDS011;5924;51.398;7.088;2023-03-14T02:01:40;9.30;;;2.03;;
11735;SDS011;5924;51.398;7.088;2023-03-14T02:04:08;4.67;;;1.37;;
11735;SDS011;5924;51.398;7.088;2023-03-14T02:09:23;5.73;;;1.43;;
11735;SDS011;5924;51.398;7.088;2023-03-14T02:11:49;4.70;;;1.60;;
11735;SDS011;5924;51.398;7.088;2023-03-14T02:14:25;5.60;;;1.10;;
11735;SDS011;5924;51.398;7.088;2023-03-14T02:16:56;14.33;;;2.60;;
11735;SDS011;5924;51.398;7.088;2023-03-14T02:19:26;5.40;;;1.50;;
11735;SDS011;5924;51.398;7.088;2023-03-14T02:22:12;7.80;;;2.13;;
11735;SDS011;5924;51.398;7.088;2023-03-14T02:24:43;14.27;;;3.40;;
11735;SDS011;5924;51.398;7.088;2023-03-14T02:27:22;7.27;;;2.27;;
11735;SDS011;5924;51.398;7.088;2023-03-14T02:29:58;15.03;;;3.40;;
11735;SDS011;5924;51.398;7.088;2023-03-14T02:32:36;4.70;;;1.70;;
11735;SDS011;5924;51.398;7.088;2023-03-14T02:35:08;5.70;;;1.83;;
11735;SDS011;5924;51.398;7.088;2023-03-14T02:37:38;9.90;;;3.03;;
11735;SDS011;5924;51.398;7.088;2023-03-14T02:40:06;10.13;;;1.97;;
11735;SDS011;5924;51.398;7.088;2023-03-14T02:42:32;11.93;;;2.27;;
11735;SDS011;5924;51.398;7.088;2023-03-14T02:45:44;9.40;;;3.20;;
11735;SDS011;5924;51.398;7.088;2023-03-14T02:47:49;5.70;;;2.00;;
11735;SDS011;5924;51.398;7.088;2023-03-14T02:50:20;9.37;;;1.83;;
11735;SDS011;5924;51.398;7.088;2023-03-14T02:52:49;7.97;;;2.10;;
11735;SDS011;5924;51.398;7.088;2023-03-14T02:55:20;8.10;;;2.50;;
11735;SDS011;5924;51.398;7.088;2023-03-14T02:57:46;10.87;;;1.93;;
11735;SDS011;5924;51.398;7.088;2023-03-14T03:00:12;10.33;;;2.73;;
11735;SDS011;5924;51.398;7.088;2023-03-14T03:02:38;7.77;;;2.00;;
11735;SDS011;5924;51.398;7.088;2023-03-14T03:05:03;6.60;;;1.80;;
11735;SDS011;5924;51.398;7.088;2023-03-14T03:07:29;12.30;;;2.70;;
11735;SDS011;5924;51.398;7.088;2023-03-14T03:09:55;9.83;;;2.50;;
11735;SDS011;5924;51.398;7.088;2023-03-14T03:12:21;4.70;;;2.43;;
11735;SDS011;5924;51.398;7.088;2023-03-14T03:14:46;3.63;;;2.50;;
11735;SDS011;5924;51.398;7.088;2023-03-14T03:17:12;4.77;;;1.97;;
11735;SDS011;5924;51.398;7.088;2023-03-14T03:19:38;4.40;;;2.43;;
11735;SDS011;5924;51.398;7.088;2023-03-14T03:22:03;4.80;;;1.80;;
11735;SDS011;5924;51.398;7.088;2023-03-14T03:24:29;6.00;;;1.90;;
11735;SDS011;5924;51.398;7.088;2023-03-14T03:26:55;9.37;;;2.57;;
11735;SDS011;5924;51.398;7.088;2023-03-14T03:29:20;8.93;;;1.70;;
11735;SDS011;5924;51.398;7.088;2023-03-14T03:31:46;5.90;;;1.37;;
11735;SDS011;5924;51.398;7.088;2023-03-14T03:34:12;10.13;;;2.43;;
11735;SDS011;5924;51.398;7.088;2023-03-14T03:36:38;6.83;;;2.47;;
11735;SDS011;5924;51.398;7.088;2023-03-14T03:39:04;8.83;;;2.73;;
11735;SDS011;5924;51.398;7.088;2023-03-14T03:41:31;4.10;;;1.50;;
11735;SDS011;5924;51.398;7.088;2023-03-14T03:43:57;10.33;;;3.13;;
11735;SDS011;5924;51.398;7.088;2023-03-14T03:46:22;6.77;;;2.20;;
11735;SDS011;5924;51.398;7.088;2023-03-14T03:48:53;6.13;;;2.10;;
11735;SDS011;5924;51.398;7.088;2023-03-14T03:51:20;6.90;;;1.80;;
11735;SDS011;5924;51.398;7.088;2023-03-14T03:53:46;12.00;;;2.30;;
11735;SDS011;5924;51.398;7.088;2023-03-14T03:56:11;4.37;;;1.50;;
11735;SDS011;5924;51.398;7.088;2023-03-14T03:58:37;7.37;;;2.30;;
11735;SDS011;5924;51.398;7.088;2023-03-14T04:01:04;4.07;;;1.77;;
11735;SDS011;5924;51.398;7.088;2023-03-14T04:03:31;7.93;;;1.53;;
11735;SDS011;5924;51.398;7.088;2023-03-14T04:06:00;6.57;;;1.73;;
11735;SDS011;5924;51.398;7.088;2023-03-14T04:08:28;5.80;;;2.20;;
11735;SDS011;5924;51.398;7.088;2023-03-14T04:10:55;3.10;;;1.50;;
11735;SDS011;5924;51.398;7.088;2023-03-14T04:13:22;5.10;;;1.70;;
11735;SDS011;5924;51.398;7.088;2023-03-14T04:15:48;2.40;;;1.37;;
11735;SDS011;5924;51.398;7.088;2023-03-14T04:18:13;1.50;;;1.20;;
11735;SDS011;5924;51.398;7.088;2023-03-14T04:20:39;3.50;;;0.83;;
11735;SDS011;5924;51.398;7.088;2023-03-14T04:23:04;4.00;;;1.03;;
11735;SDS011;5924;51.398;7.088;2023-03-14T04:25:30;1.73;;;1.20;;
11735;SDS011;5924;51.398;7.088;2023-03-14T04:27:56;7.40;;;1.30;;
11735;SDS011;5924;51.398;7.088;2023-03-14T04:30:21;6.70;;;0.90;;
11735;SDS011;5924;51.398;7.088;2023-03-14T04:32:47;3.23;;;1.10;;
11735;SDS011;5924;51.398;7.088;2023-03-14T04:35:13;4.17;;;1.10;;
11735;SDS011;5924;51.398;7.088;2023-03-14T04:37:38;0.93;;;0.93;;
11735;SDS011;5924;51.398;7.088;2023-03-14T04:40:05;1.20;;;0.97;;
11735;SDS011;5924;51.398;7.088;2023-03-14T04:42:31;2.67;;;0.80;;
11735;SDS011;5924;51.398;7.088;2023-03-14T04:44:57;2.20;;;1.40;;
11735;SDS011;5924;51.398;7.088;2023-03-14T04:47:23;7.57;;;1.00;;
11735;SDS011;5924;51.398;7.088;2023-03-14T04:49:48;4.47;;;1.80;;
11735;SDS011;5924;51.398;7.088;2023-03-14T04:52:14;3.50;;;1.27;;
11735;SDS011;5924;51.398;7.088;2023-03-14T04:54:40;6.37;;;0.90;;
11735;SDS011;5924;51.398;7.088;2023-03-14T04:57:05;1.80;;;0.63;;
11735;SDS011;5924;51.398;7.088;2023-03-14T04:59:31;1.53;;;0.70;;
11735;SDS011;5924;51.398;7.088;2023-03-14T05:01:57;3.60;;;0.50;;
11735;SDS011;5924;51.398;7.088;2023-03-14T05:04:22;3.90;;;0.77;;
11735;SDS011;5924;51.398;7.088;2023-03-14T05:06:48;1.57;;;0.60;;
11735;SDS011;5924;51.398;7.088;2023-03-14T05:09:13;0.47;;;0.47;;
11735;SDS011;5924;51.398;7.088;2023-03-14T05:11:40;0.60;;;0.50;;
11735;SDS011;5924;51.398;7.088;2023-03-14T05:14:05;0.50;;;0.50;;
11735;SDS011;5924;51.398;7.088;2023-03-14T05:16:31;1.07;;;0.40;;
11735;SDS011;5924;51.398;7.088;2023-03-14T05:18:57;0.40;;;0.40;;
11735;SDS011;5924;51.398;7.088;2023-03-14T05:21:22;0.50;;;0.50;;
11735;SDS011;5924;51.398;7.088;2023-03-14T05:23:48;0.47;;;0.47;;
11735;SDS011;5924;51.398;7.088;2023-03-14T05:26:14;0.60;;;0.50;;
11735;SDS011;5924;51.398;7.088;2023-03-14T05:28:41;1.53;;;0.50;;
11735;SDS011;5924;51.398;7.088;2023-03-14T05:31:07;0.30;;;0.30;;
11735;SDS011;5924;51.398;7.088;2023-03-14T05:33:33;0.47;;;0.47;;
11735;SDS011;5924;51.398;7.088;2023-03-14T05:35:59;2.10;;;1.10;;
11735;SDS011;5924;51.398;7.088;2023-03-14T05:38:25;0.50;;;0.50;;
11735;SDS011;5924;51.398;7.088;2023-03-14T05:40:50;1.60;;;1.53;;
11735;SDS011;5924;51.398;7.088;2023-03-14T05:43:16;1.70;;;1.60;;
11735;SDS011;5924;51.398;7.088;2023-03-14T05:45:42;3.20;;;1.30;;
11735;SDS011;5924;51.398;7.088;2023-03-14T05:48:08;2.50;;;2.10;;
11735;SDS011;5924;51.398;7.088;2023-03-14T05:50:34;4.53;;;2.90;;
11735;SDS011;5924;51.398;7.088;2023-03-14T05:52:59;8.97;;;3.37;;
11735;SDS011;5924;51.398;7.088;2023-03-14T05:55:25;8.20;;;4.10;;
11735;SDS011;5924;51.398;7.088;2023-03-14T05:57:52;11.80;;;4.00;;
11735;SDS011;5924;51.398;7.088;2023-03-14T06:00:19;9.97;;;2.57;;
11735;SDS011;5924;51.398;7.088;2023-03-14T06:02:45;9.10;;;2.60;;
11735;SDS011;5924;51.398;7.088;2023-03-14T06:05:10;10.83;;;2.77;;
11735;SDS011;5924;51.398;7.088;2023-03-14T06:07:36;5.50;;;2.37;;
11735;SDS011;5924;51.398;7.088;2023-03-14T06:10:02;8.50;;;2.13;;
11735;SDS011;5924;51.398;7.088;2023-03-14T06:12:28;5.23;;;1.60;;
11735;SDS011;5924;51.398;7.088;2023-03-14T06:14:53;9.60;;;2.17;;
11735;SDS011;5924;51.398;7.088;2023-03-14T06:17:19;4.77;;;1.80;;
11735;SDS011;5924;51.398;7.088;2023-03-14T06:19:45;6.27;;;1.90;;
11735;SDS011;5924;51.398;7.088;2023-03-14T06:22:10;2.40;;;1.77;;
11735;SDS011;5924;51.398;7.088;2023-03-14T06:24:36;1.53;;;1.43;;
11735;SDS011;5924;51.398;7.088;2023-03-14T06:27:02;2.33;;;2.13;;
11735;SDS011;5924;51.398;7.088;2023-03-14T06:29:28;1.40;;;1.30;;
11735;SDS011;5924;51.398;7.088;2023-03-14T06:31:54;1.67;;;1.10;;
11735;SDS011;5924;51.398;7.088;2023-03-14T06:34:20;17.83;;;1.70;;
11735;SDS011;5924;51.398;7.088;2023-03-14T06:36:46;1.10;;;0.90;;
11735;SDS011;5924;51.398;7.088;2023-03-14T06:39:12;1.43;;;1.33;;
11735;SDS011;5924;51.398;7.088;2023-03-14T06:41:37;3.17;;;1.30;;
11735;SDS011;5924;51.398;7.088;2023-03-14T06:44:03;1.80;;;1.00;;
11735;SDS011;5924;51.398;7.088;2023-03-14T06:46:29;2.93;;;0.90;;
11735;SDS011;5924;51.398;7.088;2023-03-14T06:48:55;0.80;;;0.80;;
11735;SDS011;5924;51.398;7.088;2023-03-14T06:51:21;1.40;;;1.20;;
11735;SDS011;5924;51.398;7.088;2023-03-14T06:53:47;1.53;;;1.00;;
11735;SDS011;5924;51.398;7.088;2023-03-14T06:56:12;3.73;;;0.60;;
11735;SDS011;5924;51.398;7.088;2023-03-14T06:58:38;1.33;;;0.77;;
11735;SDS011;5924;51.398;7.088;2023-03-14T07:01:04;0.60;;;0.60;;
11735;SDS011;5924;51.398;7.088;2023-03-14T07:03:30;2.50;;;1.97;;
11735;SDS011;5924;51.398;7.088;2023-03-14T07:05:56;2.73;;;0.80;;
11735;SDS011;5924;51.398;7.088;2023-03-14T07:08:21;5.90;;;1.10;;
11735;SDS011;5924;51.398;7.088;2023-03-14T07:10:47;3.03;;;1.00;;
11735;SDS011;5924;51.398;7.088;2023-03-14T07:13:13;1.17;;;1.17;;
11735;SDS011;5924;51.398;7.088;2023-03-14T07:15:38;1.43;;;1.20;;
11735;SDS011;5924;51.398;7.088;2023-03-14T07:18:04;0.80;;;0.80;;
11735;SDS011;5924;51.398;7.088;2023-03-14T07:20:30;1.53;;;0.80;;
11735;SDS011;5924;51.398;7.088;2023-03-14T07:22:57;3.00;;;0.93;;
11735;SDS011;5924;51.398;7.088;2023-03-14T07:25:24;1.07;;;1.07;;
11735;SDS011;5924;51.398;7.088;2023-03-14T07:27:50;0.83;;;0.83;;
11735;SDS011;5924;51.398;7.088;2023-03-14T07:30:16;0.90;;;0.90;;
11735;SDS011;5924;51.398;7.088;2023-03-14T07:32:42;0.77;;;0.77;;
11735;SDS011;5924;51.398;7.088;2023-03-14T07:35:08;1.37;;;1.37;;
11735;SDS011;5924;51.398;7.088;2023-03-14T07:37:33;2.07;;;1.00;;
11735;SDS011;5924;51.398;7.088;2023-03-14T07:39:59;0.80;;;0.80;;
11735;SDS011;5924;51.398;7.088;2023-03-14T07:42:25;0.80;;;0.80;;
11735;SDS011;5924;51.398;7.088;2023-03-14T07:44:50;2.87;;;1.20;;
11735;SDS011;5924;51.398;7.088;2023-03-14T07:47:16;0.90;;;0.90;;
11735;SDS011;5924;51.398;7.088;2023-03-14T07:49:42;3.80;;;1.30;;
11735;SDS011;5924;51.398;7.088;2023-03-14T07:52:07;1.97;;;1.40;;
11735;SDS011;5924;51.398;7.088;2023-03-14T07:54:33;1.40;;;1.40;;
11735;SDS011;5924;51.398;7.088;2023-03-14T07:56:58;1.30;;;1.30;;
11735;SDS011;5924;51.398;7.088;2023-03-14T07:59:25;3.60;;;1.20;;
11735;SDS011;5924;51.398;7.088;2023-03-14T08:01:51;3.73;;;1.40;;
11735;SDS011;5924;51.398;7.088;2023-03-14T08:04:17;0.90;;;0.90;;
11735;SDS011;5924;51.398;7.088;2023-03-14T08:06:43;1.33;;;1.23;;
11735;SDS011;5924;51.398;7.088;2023-03-14T08:09:09;1.80;;;1.10;;
11735;SDS011;5924;51.398;7.088;2023-03-14T08:11:35;1.20;;;1.20;;
11735;SDS011;5924;51.398;7.088;2023-03-14T08:14:01;0.80;;;0.80;;
11735;SDS011;5924;51.398;7.088;2023-03-14T08:16:26;1.20;;;1.20;;
11735;SDS011;5924;51.398;7.088;2023-03-14T08:18:52;1.13;;;0.90;;
11735;SDS011;5924;51.398;7.088;2023-03-14T08:21:18;1.00;;;1.00;;
11735;SDS011;5924;51.398;7.088;2023-03-14T08:23:43;0.97;;;0.97;;
11735;SDS011;5924;51.398;7.088;2023-03-14T08:26:09;1.03;;;1.00;;
11735;SDS011;5924;51.398;7.088;2023-03-14T08:28:35;0.87;;;0.87;;
11735;SDS011;5924;51.398;7.088;2023-03-14T08:31:01;1.43;;;1.00;;
11735;SDS011;5924;51.398;7.088;2023-03-14T08:33:27;0.97;;;0.97;;
11735;SDS011;5924;51.398;7.088;2023-03-14T08:35:57;1.20;;;1.13;;
11735;SDS011;5924;51.398;7.088;2023-03-14T08:38:25;2.70;;;0.90;;
11735;SDS011;5924;51.398;7.088;2023-03-14T08:41:00;0.80;;;0.80;;
11735;SDS011;5924;51.398;7.088;2023-03-14T08:43:27;1.33;;;1.33;;
11735;SDS011;5924;51.398;7.088;2023-03-14T08:45:56;1.20;;;1.10;;
11735;SDS011;5924;51.398;7.088;2023-03-14T08:48:23;1.40;;;1.30;;
11735;SDS011;5924;51.398;7.088;2023-03-14T08:50:49;1.70;;;1.70;;
11735;SDS011;5924;51.398;7.088;2023-03-14T08:53:14;1.10;;;1.10;;
11735;SDS011;5924;51.398;7.088;2023-03-14T08:55:40;1.60;;;1.40;;
11735;SDS011;5924;51.398;7.088;2023-03-14T08:58:05;1.20;;;1.20;;
11735;SDS011;5924;51.398;7.088;2023-03-14T09:00:31;1.00;;;1.00;;
11735;SDS011;5924;51.398;7.088;2023-03-14T09:02:57;1.60;;;1.00;;
11735;SDS011;5924;51.398;7.088;2023-03-14T09:05:22;0.90;;;0.90;;
11735;SDS011;5924;51.398;7.088;2023-03-14T09:07:48;0.87;;;0.87;;
11735;SDS011;5924;51.398;7.088;2023-03-14T09:10:14;1.17;;;1.17;;
11735;SDS011;5924;51.398;7.088;2023-03-14T09:12:39;1.10;;;1.10;;
11735;SDS011;5924;51.398;7.088;2023-03-14T09:15:05;1.37;;;1.20;;
11735;SDS011;5924;51.398;7.088;2023-03-14T09:17:31;1.23;;;1.20;;
11735;SDS011;5924;51.398;7.088;2023-03-14T09:19:57;2.00;;;1.43;;
11735;SDS011;5924;51.398;7.088;2023-03-14T09:22:22;1.60;;;1.53;;
11735;SDS011;5924;51.398;7.088;2023-03-14T09:24:48;1.63;;;1.53;;
11735;SDS011;5924;51.398;7.088;2023-03-14T09:27:14;1.10;;;1.10;;
11735;SDS011;5924;51.398;7.088;2023-03-14T09:29:40;1.30;;;1.30;;
11735;SDS011;5924;51.398;7.088;2023-03-14T09:32:05;3.03;;;1.70;;
11735;SDS011;5924;51.398;7.088;2023-03-14T09:34:31;1.57;;;1.30;;
11735;SDS011;5924;51.398;7.088;2023-03-14T09:36:57;0.60;;;0.60;;
11735;SDS011;5924;51.398;7.088;2023-03-14T09:39:23;0.40;;;0.40;;
11735;SDS011;5924;51.398;7.088;2023-03-14T09:41:49;0.50;;;0.50;;
11735;SDS011;5924;51.398;7.088;2023-03-14T09:44:32;0.50;;;0.50;;
11735;SDS011;5924;51.398;7.088;2023-03-14T09:47:03;0.50;;;0.50;;
11735;SDS011;5924;51.398;7.088;2023-03-14T09:49:36;0.77;;;0.77;;
11735;SDS011;5924;51.398;7.088;2023-03-14T09:52:06;2.10;;;0.77;;
11735;SDS011;5924;51.398;7.088;2023-03-14T09:55:13;0.67;;;0.67;;
11735;SDS011;5924;51.398;7.088;2023-03-14T09:57:42;0.80;;;0.80;;
11735;SDS011;5924;51.398;7.088;2023-03-14T10:00:16;7.23;;;1.27;;
11735;SDS011;5924;51.398;7.088;2023-03-14T10:02:53;0.87;;;0.87;;
11735;SDS011;5924;51.398;7.088;2023-03-14T10:05:24;1.53;;;1.53;;
11735;SDS011;5924;51.398;7.088;2023-03-14T10:07:50;1.70;;;1.70;;
11735;SDS011;5924;51.398;7.088;2023-03-14T10:10:20;2.13;;;2.13;;
11735;SDS011;5924;51.398;7.088;2023-03-14T10:12:47;4.80;;;3.23;;
11735;SDS011;5924;51.398;7.088;2023-03-14T10:15:31;3.80;;;3.60;;
11735;SDS011;5924;51.398;7.088;2023-03-14T10:17:59;3.93;;;3.73;;
11735;SDS011;5924;51.398;7.088;2023-03-14T10:20:34;4.00;;;3.33;;
11735;SDS011;5924;51.398;7.088;2023-03-14T10:25:42;4.80;;;4.60;;
11735;SDS011;5924;51.398;7.088;2023-03-14T10:28:24;4.97;;;4.70;;
11735;SDS011;5924;51.398;7.088;2023-03-14T10:30:51;9.47;;;5.83;;
11735;SDS011;5924;51.398;7.088;2023-03-14T10:35:43;5.40;;;3.13;;
11735;SDS011;5924;51.398;7.088;2023-03-14T10:38:13;3.00;;;2.90;;
11735;SDS011;5924;51.398;7.088;2023-03-14T10:40:49;3.60;;;3.50;;
11735;SDS011;5924;51.398;7.088;2023-03-14T10:43:39;3.80;;;3.70;;
11735;SDS011;5924;51.398;7.088;2023-03-14T10:46:16;3.70;;;3.60;;
11735;SDS011;5924;51.398;7.088;2023-03-14T10:48:43;4.77;;;3.17;;
11735;SDS011;5924;51.398;7.088;2023-03-14T10:53:45;1.13;;;1.03;;
11735;SDS011;5924;51.398;7.088;2023-03-14T10:56:24;1.20;;;1.20;;
11735;SDS011;5924;51.398;7.088;2023-03-14T10:58:51;5.10;;;1.47;;
11735;SDS011;5924;51.398;7.088;2023-03-14T11:04:23;1.80;;;1.13;;
11735;SDS011;5924;51.398;7.088;2023-03-14T11:09:56;1.50;;;0.87;;
11735;SDS011;5924;51.398;7.088;2023-03-14T11:12:49;1.30;;;1.20;;
11735;SDS011;5924;51.398;7.088;2023-03-14T11:15:18;0.87;;;0.83;;
11735;SDS011;5924;51.398;7.088;2023-03-14T11:17:50;2.53;;;1.43;;
11735;SDS011;5924;51.398;7.088;2023-03-14T11:20:41;2.00;;;1.40;;
11735;SDS011;5924;51.398;7.088;2023-03-14T11:23:30;1.53;;;1.30;;
11735;SDS011;5924;51.398;7.088;2023-03-14T11:28:45;1.30;;;0.90;;
11735;SDS011;5924;51.398;7.088;2023-03-14T11:31:21;1.53;;;1.20;;
11735;SDS011;5924;51.398;7.088;2023-03-14T11:36:55;1.40;;;1.40;;
11735;SDS011;5924;51.398;7.088;2023-03-14T11:39:29;1.20;;;1.20;;
11735;SDS011;5924;51.398;7.088;2023-03-14T11:42:12;1.27;;;1.23;;
11735;SDS011;5924;51.398;7.088;2023-03-14T11:44:41;1.40;;;1.30;;
11735;SDS011;5924;51.398;7.088;2023-03-14T11:52:38;3.13;;;1.67;;
11735;SDS011;5924;51.398;7.088;2023-03-14T11:58:23;1.67;;;1.10;;
11735;SDS011;5924;51.398;7.088;2023-03-14T12:00:59;3.50;;;1.17;;
11735;SDS011;5924;51.398;7.088;2023-03-14T12:08:56;1.27;;;0.70;;
11735;SDS011;5924;51.398;7.088;2023-03-14T12:11:34;0.90;;;0.90;;
11735;SDS011;5924;51.398;7.088;2023-03-14T12:14:16;1.03;;;1.00;;
11735;SDS011;5924;51.398;7.088;2023-03-14T12:16:45;1.53;;;0.90;;
11735;SDS011;5924;51.398;7.088;2023-03-14T12:19:13;0.87;;;0.87;;
11735;SDS011;5924;51.398;7.088;2023-03-14T12:21:53;0.90;;;0.90;;
11735;SDS011;5924;51.398;7.088;2023-03-14T12:24:41;11.20;;;1.37;;
11735;SDS011;5924;51.398;7.088;2023-03-14T12:27:37;3.60;;;1.27;;
11735;SDS011;5924;51.398;7.088;2023-03-14T12:30:05;2.93;;;2.70;;
11735;SDS011;5924;51.398;7.088;2023-03-14T12:33:10;1.33;;;0.87;;
11735;SDS011;5924;51.398;7.088;2023-03-14T12:35:41;8.50;;;1.40;;
11735;SDS011;5924;51.398;7.088;2023-03-14T12:38:16;3.03;;;1.07;;
11735;SDS011;5924;51.398;7.088;2023-03-14T12:41:07;2.17;;;0.77;;
11735;SDS011;5924;51.398;7.088;2023-03-14T12:43:54;4.10;;;1.13;;
11735;SDS011;5924;51.398;7.088;2023-03-14T12:46:21;4.60;;;1.10;;
11735;SDS011;5924;51.398;7.088;2023-03-14T12:51:36;3.23;;;1.07;;
11735;SDS011;5924;51.398;7.088;2023-03-14T12:56:54;5.03;;;0.90;;
11735;SDS011;5924;51.398;7.088;2023-03-14T12:59:36;6.93;;;1.30;;
11735;SDS011;5924;51.398;7.088;2023-03-14T13:05:11;8.97;;;1.60;;
11735;SDS011;5924;51.398;7.088;2023-03-14T13:10:45;11.77;;;1.47;;
11735;SDS011;5924;51.398;7.088;2023-03-14T13:13:23;11.63;;;1.93;;
11735;SDS011;5924;51.398;7.088;2023-03-14T13:15:54;6.27;;;1.57;;
11735;SDS011;5924;51.398;7.088;2023-03-14T13:21:42;10.20;;;3.40;;
11735;SDS011;5924;51.398;7.088;2023-03-14T13:23:59;11.00;;;1.97;;
11735;SDS011;5924;51.398;7.088;2023-03-14T13:26:31;9.00;;;2.10;;
11735;SDS011;5924;51.398;7.088;2023-03-14T13:29:00;9.90;;;2.00;;
11735;SDS011;5924;51.398;7.088;2023-03-14T13:31:33;14.00;;;2.50;;
11735;SDS011;5924;51.398;7.088;2023-03-14T13:34:04;14.03;;;2.83;;
11735;SDS011;5924;51.398;7.088;2023-03-14T13:36:35;9.60;;;2.10;;
11735;SDS011;5924;51.398;7.088;2023-03-14T13:39:01;10.03;;;2.27;;
11735;SDS011;5924;51.398;7.088;2023-03-14T13:41:29;11.03;;;2.30;;
11735;SDS011;5924;51.398;7.088;2023-03-14T13:44:00;13.73;;;2.77;;
11735;SDS011;5924;51.398;7.088;2023-03-14T13:46:30;15.50;;;2.20;;
11735;SDS011;5924;51.398;7.088;2023-03-14T13:49:01;10.27;;;2.00;;
11735;SDS011;5924;51.398;7.088;2023-03-14T13:51:29;8.30;;;1.97;;
11735;SDS011;5924;51.398;7.088;2023-03-14T13:53:58;16.07;;;2.90;;
11735;SDS011;5924;51.398;7.088;2023-03-14T13:56:28;23.23;;;3.30;;
11735;SDS011;5924;51.398;7.088;2023-03-14T13:58:56;16.83;;;2.57;;
11735;SDS011;5924;51.398;7.088;2023-03-14T14:01:35;15.73;;;3.07;;
11735;SDS011;5924;51.398;7.088;2023-03-14T14:04:06;9.73;;;2.80;;
11735;SDS011;5924;51.398;7.088;2023-03-14T14:06:35;13.30;;;2.20;;
11735;SDS011;5924;51.398;7.088;2023-03-14T14:09:43;14.10;;;2.13;;
11735;SDS011;5924;51.398;7.088;2023-03-14T14:12:05;11.77;;;2.23;;
11735;SDS011;5924;51.398;7.088;2023-03-14T14:17:38;11.50;;;2.50;;
11735;SDS011;5924;51.398;7.088;2023-03-14T14:20:13;15.80;;;3.17;;
11735;SDS011;5924;51.398;7.088;2023-03-14T14:22:45;15.23;;;2.13;;
11735;SDS011;5924;51.398;7.088;2023-03-14T14:25:12;18.00;;;3.10;;
11735;SDS011;5924;51.398;7.088;2023-03-14T14:27:40;10.07;;;2.87;;
11735;SDS011;5924;51.398;7.088;2023-03-14T14:32:43;8.83;;;2.30;;
11735;SDS011;5924;51.398;7.088;2023-03-14T14:35:17;9.00;;;2.40;;
11735;SDS011;5924;51.398;7.088;2023-03-14T14:37:48;21.97;;;3.20;;
11735;SDS011;5924;51.398;7.088;2023-03-14T14:40:21;13.57;;;2.80;;
11735;SDS011;5924;51.398;7.088;2023-03-14T14:42:49;5.33;;;1.47;;
11735;SDS011;5924;51.398;7.088;2023-03-14T14:45:22;5.17;;;1.73;;
11735;SDS011;5924;51.398;7.088;2023-03-14T14:47:50;10.00;;;1.80;;
11735;SDS011;5924;51.398;7.088;2023-03-14T14:53:03;8.80;;;1.73;;
11735;SDS011;5924;51.398;7.088;2023-03-14T14:55:45;6.27;;;1.47;;
11735;SDS011;5924;51.398;7.088;2023-03-14T14:58:19;13.27;;;2.43;;
11735;SDS011;5924;51.398;7.088;2023-03-14T15:00:53;3.23;;;2.00;;
11735;SDS011;5924;51.398;7.088;2023-03-14T15:03:30;7.10;;;1.70;;
11735;SDS011;5924;51.398;7.088;2023-03-14T15:05:57;12.47;;;1.90;;
11735;SDS011;5924;51.398;7.088;2023-03-14T15:08:26;4.40;;;1.30;;
11735;SDS011;5924;51.398;7.088;2023-03-14T15:10:53;3.90;;;1.50;;
11735;SDS011;5924;51.398;7.088;2023-03-14T15:13:19;6.87;;;2.30;;
11735;SDS011;5924;51.398;7.088;2023-03-14T15:15:45;10.10;;;1.83;;
11735;SDS011;5924;51.398;7.088;2023-03-14T15:18:15;6.00;;;1.50;;
11735;SDS011;5924;51.398;7.088;2023-03-14T15:20:43;5.20;;;1.37;;
11735;SDS011;5924;51.398;7.088;2023-03-14T15:23:10;4.53;;;1.33;;
11735;SDS011;5924;51.398;7.088;2023-03-14T15:25:37;3.10;;;1.10;;
11735;SDS011;5924;51.398;7.088;2023-03-14T15:28:27;6.00;;;1.33;;
11735;SDS011;5924;51.398;7.088;2023-03-14T15:30:57;5.90;;;1.57;;
11735;SDS011;5924;51.398;7.088;2023-03-14T15:33:24;7.67;;;1.20;;
11735;SDS011;5924;51.398;7.088;2023-03-14T15:35:51;2.70;;;1.17;;
11735;SDS011;5924;51.398;7.088;2023-03-14T15:38:18;3.83;;;1.30;;
11735;SDS011;5924;51.398;7.088;2023-03-14T15:40:48;3.03;;;1.43;;
11735;SDS011;5924;51.398;7.088;2023-03-14T15:43:15;6.17;;;1.40;;
11735;SDS011;5924;51.398;7.088;2023-03-14T15:45:42;2.33;;;0.90;;
11735;SDS011;5924;51.398;7.088;2023-03-14T15:48:12;2.00;;;1.30;;
11735;SDS011;5924;51.398;7.088;2023-03-14T15:50:41;2.80;;;1.00;;
11735;SDS011;5924;51.398;7.088;2023-03-14T15:53:07;2.50;;;1.30;;
11735;SDS011;5924;51.398;7.088;2023-03-14T15:55:32;6.33;;;1.17;;
11735;SDS011;5924;51.398;7.088;2023-03-14T15:57:58;5.90;;;1.17;;
11735;SDS011;5924;51.398;7.088;2023-03-14T16:00:24;8.00;;;1.30;;
11735;SDS011;5924;51.398;7.088;2023-03-14T16:02:51;5.80;;;1.60;;
11735;SDS011;5924;51.398;7.088;2023-03-14T16:05:17;3.50;;;1.00;;
11735;SDS011;5924;51.398;7.088;2023-03-14T16:07:45;5.37;;;1.20;;
11735;SDS011;5924;51.398;7.088;2023-03-14T16:10:12;8.17;;;1.60;;
11735;SDS011;5924;51.398;7.088;2023-03-14T16:12:39;5.30;;;1.57;;
11735;SDS011;5924;51.398;7.088;2023-03-14T16:15:05;8.10;;;1.40;;